createdAt,value
2022-11-22T00:01:04.323Z,3.50
2022-11-22T00:05:07.407Z,3.50
2022-11-22T00:09:10.247Z,3.50
2022-11-22T00:13:13.117Z,3.50
2022-11-22T00:17:17.425Z,3.50
2022-11-22T00:21:20.302Z,3.60
2022-11-22T00:25:23.121Z,3.60
2022-11-22T00:29:26.111Z,3.60
2022-11-22T00:33:30.484Z,3.60
2022-11-22T00:37:33.338Z,3.70
2022-11-22T00:41:36.310Z,3.70
2022-11-22T00:45:41.287Z,3.70
2022-11-22T00:49:45.507Z,3.80
2022-11-22T00:53:48.482Z,3.80
2022-11-22T00:57:51.377Z,3.80
2022-11-22T01:01:54.279Z,3.80
2022-11-22T01:05:58.516Z,3.80
2022-11-22T01:10:01.379Z,3.80
2022-11-22T01:14:04.289Z,3.80
2022-11-22T01:18:07.222Z,3.80
2022-11-22T01:22:11.429Z,3.80
2022-11-22T01:26:14.311Z,3.80
2022-11-22T01:30:17.215Z,3.80
2022-11-22T01:34:20.103Z,3.80
2022-11-22T01:38:24.348Z,3.70
2022-11-22T01:42:40.851Z,3.70
2022-11-22T01:46:43.686Z,3.70
2022-11-22T01:50:49.078Z,3.60
2022-11-22T01:54:55.622Z,3.60
2022-11-22T01:59:00.176Z,3.60
2022-11-22T02:03:04.471Z,3.60
2022-11-22T02:07:09.924Z,3.60
2022-11-22T02:11:14.546Z,3.60
2022-11-22T02:15:17.533Z,3.60
2022-11-22T02:19:23.188Z,3.60
2022-11-22T02:23:31.103Z,3.60
2022-11-22T02:27:35.334Z,3.60
2022-11-22T02:31:42.803Z,3.60
2022-11-22T02:35:45.740Z,3.60
2022-11-22T02:39:49.685Z,3.60
2022-11-22T02:43:53.933Z,3.50
2022-11-22T02:48:05.245Z,3.50
2022-11-22T02:52:08.131Z,3.50
2022-11-22T02:56:11.085Z,3.50
2022-11-22T03:00:16.086Z,3.40
2022-11-22T03:04:25.615Z,3.40
2022-11-22T03:08:28.480Z,3.40
2022-11-22T03:12:31.332Z,3.40
2022-11-22T03:16:35.561Z,3.40
2022-11-22T03:20:39.520Z,3.40
2022-11-22T03:24:42.468Z,3.40
2022-11-22T03:28:45.308Z,3.40
2022-11-22T03:32:49.562Z,3.40
2022-11-22T03:36:52.426Z,3.50
2022-11-22T03:40:55.262Z,3.50
2022-11-22T03:44:58.199Z,3.50
2022-11-22T03:49:02.491Z,3.50
2022-11-22T03:53:05.346Z,3.50
2022-11-22T03:57:08.199Z,3.60
2022-11-22T04:01:16.340Z,3.60
2022-11-22T04:05:21.080Z,3.60
2022-11-22T04:09:23.994Z,3.60
2022-11-22T04:13:47.371Z,3.60
2022-11-22T04:17:50.232Z,3.70
2022-11-22T04:21:54.448Z,3.70
2022-11-22T04:25:57.256Z,3.70
2022-11-22T04:30:46.563Z,3.70
2022-11-22T04:34:49.461Z,3.70
2022-11-22T04:38:53.747Z,3.70
2022-11-22T04:43:13.957Z,3.70
2022-11-22T04:47:34.310Z,3.80
2022-11-22T04:51:54.046Z,3.70
2022-11-22T04:55:58.277Z,3.70
2022-11-22T05:00:01.118Z,3.80
2022-11-22T05:04:03.966Z,3.80
2022-11-22T05:08:07.442Z,3.80
2022-11-22T05:12:19.691Z,3.80
2022-11-22T05:16:22.550Z,3.90
2022-11-22T05:20:25.451Z,3.90
2022-11-22T05:24:28.306Z,3.90
2022-11-22T05:28:33.206Z,3.90
2022-11-22T05:32:36.274Z,3.90
2022-11-22T05:36:39.230Z,3.90
2022-11-22T05:40:42.140Z,3.90
2022-11-22T05:44:56.861Z,3.90
2022-11-22T05:48:59.727Z,3.90
2022-11-22T05:53:03.075Z,4.00
2022-11-22T05:57:05.957Z,4.00
2022-11-22T06:01:17.944Z,4.00
2022-11-22T06:05:22.209Z,4.10
2022-11-22T06:09:25.084Z,4.10
2022-11-22T06:13:28.027Z,4.10
2022-11-22T06:17:30.873Z,4.20
2022-11-22T06:21:35.348Z,4.20
2022-11-22T06:25:38.198Z,4.20
2022-11-22T06:29:41.059Z,4.30
2022-11-22T06:33:44.398Z,4.30
2022-11-22T06:38:00.680Z,4.40
2022-11-22T06:42:03.906Z,4.40
2022-11-22T06:46:07.401Z,4.50
2022-11-22T06:50:10.753Z,4.50
2022-11-22T06:54:15.192Z,4.50
2022-11-22T06:58:18.083Z,4.50
2022-11-22T07:02:21.071Z,4.40
2022-11-22T07:06:26.878Z,4.50
2022-11-22T07:10:31.097Z,4.50
2022-11-22T07:14:33.990Z,4.50
2022-11-22T07:18:36.922Z,4.60
2022-11-22T07:22:39.766Z,4.70
2022-11-22T07:26:43.972Z,4.80
2022-11-22T07:30:46.883Z,4.90
2022-11-22T07:34:49.768Z,4.90
2022-11-22T07:38:52.629Z,5.00
2022-11-22T07:43:06.171Z,5.10
2022-11-22T07:47:09.052Z,5.10
2022-11-22T07:51:12.020Z,5.20
2022-11-22T07:55:14.938Z,5.30
2022-11-22T07:59:19.270Z,5.40
2022-11-22T08:03:27.174Z,5.40
2022-11-22T08:07:31.897Z,5.40
2022-11-22T08:11:34.856Z,5.50
2022-11-22T08:15:39.092Z,5.50
2022-11-22T08:19:41.960Z,5.60
2022-11-22T08:23:45.808Z,5.60
2022-11-22T08:27:48.727Z,5.70
2022-11-22T08:31:52.988Z,5.70
2022-11-22T08:35:56.006Z,5.80
2022-11-22T08:39:58.907Z,5.90
2022-11-22T08:44:01.853Z,5.90
2022-11-22T08:48:06.348Z,6.00
2022-11-22T08:52:09.205Z,6.10
2022-11-22T08:56:12.799Z,6.30
2022-11-22T09:00:17.387Z,6.60
2022-11-22T09:04:21.693Z,7.00
2022-11-22T09:08:24.656Z,7.40
2022-11-22T09:12:27.554Z,7.70
2022-11-22T09:16:30.440Z,7.90
2022-11-22T09:20:37.910Z,8.10
2022-11-22T09:24:40.779Z,8.30
2022-11-22T09:28:43.842Z,8.60
2022-11-22T09:32:46.724Z,8.90
2022-11-22T09:36:50.965Z,9.30
2022-11-22T09:41:14.542Z,9.80
2022-11-22T09:45:31.609Z,10.30
2022-11-22T09:49:41.030Z,10.90
2022-11-22T09:53:47.834Z,11.40
2022-11-22T09:57:55.442Z,11.90
2022-11-22T10:02:11.623Z,12.80
2022-11-22T10:06:24.087Z,13.00
2022-11-22T10:10:58.252Z,13.40
2022-11-22T10:15:04.888Z,14.20
2022-11-22T10:19:12.791Z,14.30
2022-11-22T10:23:25.307Z,14.90
2022-11-22T10:27:32.011Z,15.00
2022-11-22T10:31:40.350Z,15.30
2022-11-22T10:35:52.047Z,15.60
2022-11-22T10:40:03.846Z,15.70
2022-11-22T10:44:14.195Z,15.80
2022-11-22T10:48:22.941Z,16.00
2022-11-22T10:52:31.814Z,16.20
2022-11-22T10:56:37.860Z,16.30
2022-11-22T11:00:42.166Z,16.30
2022-11-22T11:04:55.295Z,16.20
2022-11-22T11:09:54.989Z,16.30
2022-11-22T11:13:24.518Z,16.30
2022-11-22T11:17:29.023Z,16.30
2022-11-22T11:21:33.258Z,16.50
2022-11-22T11:25:40.346Z,16.60
2022-11-22T11:29:44.679Z,16.70
2022-11-22T11:33:47.852Z,16.90
2022-11-22T11:37:52.093Z,17.00
2022-11-22T11:41:55.079Z,17.10
2022-11-22T11:46:15.598Z,17.10
2022-11-22T11:50:24.076Z,17.10
2022-11-22T11:54:35.820Z,17.20
2022-11-22T11:58:38.719Z,17.30
2022-11-22T12:02:42.611Z,17.50
2022-11-22T12:06:54.508Z,17.80
2022-11-22T12:11:02.857Z,18.00
2022-11-22T12:15:11.608Z,18.30
2022-11-22T12:19:24.538Z,18.70
2022-11-22T12:23:32.463Z,19.00
2022-11-22T12:27:36.757Z,19.20
2022-11-22T12:31:43.536Z,19.40
2022-11-22T12:39:51.533Z,19.70
2022-11-22T12:43:56.506Z,19.60
2022-11-22T12:48:01.984Z,19.10
2022-11-22T12:52:08.186Z,18.40
2022-11-22T12:56:16.548Z,17.70
2022-11-22T13:00:22.160Z,17.00
2022-11-22T13:04:28.861Z,16.40
2022-11-22T13:08:35.015Z,15.90
2022-11-22T13:12:41.170Z,15.40
2022-11-22T13:16:45.535Z,15.00
2022-11-22T13:20:51.313Z,14.60
2022-11-22T13:24:59.539Z,14.20
2022-11-22T13:29:04.576Z,13.90
2022-11-22T13:33:23.740Z,13.50
2022-11-22T13:37:26.792Z,13.20
2022-11-22T13:41:31.148Z,12.90
2022-11-22T13:45:58.289Z,12.60
2022-11-22T13:50:02.552Z,12.40
2022-11-22T13:54:20.305Z,12.20
2022-11-22T13:58:55.569Z,12.00
2022-11-22T14:03:14.902Z,11.80
2022-11-22T14:07:29.240Z,11.60
2022-11-22T14:11:40.523Z,11.40
2022-11-22T14:15:51.120Z,11.30
2022-11-22T14:20:01.123Z,11.20
2022-11-22T14:24:09.135Z,11.10
2022-11-22T14:28:19.670Z,11.00
2022-11-22T14:32:23.499Z,11.00
2022-11-22T14:36:28.483Z,10.90
2022-11-22T14:40:36.948Z,10.80
2022-11-22T14:44:40.222Z,10.80
2022-11-22T14:48:46.549Z,10.70
2022-11-22T14:52:49.523Z,10.60
2022-11-22T14:56:57.578Z,10.50
2022-11-22T15:01:17.631Z,10.50
2022-11-22T15:09:20.989Z,10.40
2022-11-22T15:10:09.570Z,10.30
2022-11-22T15:14:33.364Z,10.20
2022-11-22T15:58:32.373Z,9.60
2022-11-22T16:02:35.431Z,9.50
2022-11-22T16:06:38.627Z,9.50
2022-11-22T16:10:44.860Z,9.40
2022-11-22T16:14:49.261Z,9.40
2022-11-22T16:18:53.224Z,9.30
2022-11-22T16:23:06.207Z,9.30
2022-11-22T16:27:16.183Z,9.30
2022-11-22T16:31:24.797Z,9.20
2022-11-22T16:35:29.977Z,9.20
2022-11-22T16:39:33.979Z,9.10
2022-11-22T16:43:38.471Z,9.10
2022-11-22T16:47:41.458Z,9.10
2022-11-22T16:51:45.450Z,9.00
2022-11-22T16:55:48.396Z,9.00
2022-11-22T16:59:54.319Z,9.00
2022-11-22T17:03:57.945Z,8.90
2022-11-22T17:08:01.216Z,8.90
2022-11-22T17:12:04.298Z,8.90
2022-11-22T17:16:10.519Z,8.90
2022-11-22T17:20:13.361Z,8.90
2022-11-22T17:24:18.493Z,8.80
2022-11-22T17:28:21.464Z,8.80
2022-11-22T17:32:25.725Z,8.80
2022-11-22T17:36:29.481Z,8.80
2022-11-22T17:40:32.413Z,8.70
2022-11-22T17:44:35.300Z,8.70
2022-11-22T17:48:39.617Z,8.70
2022-11-22T17:52:49.642Z,8.70
2022-11-22T17:56:52.537Z,8.70
2022-11-22T18:01:02.943Z,8.70
2022-11-22T18:05:09.721Z,8.70
2022-11-22T18:09:48.805Z,8.70
2022-11-22T18:13:51.728Z,8.70
2022-11-22T18:17:54.622Z,8.60
2022-11-22T18:21:58.855Z,8.70
2022-11-22T18:26:38.148Z,8.60
2022-11-22T18:30:24.961Z,8.60
2022-11-22T18:34:28.620Z,8.60
2022-11-22T18:38:35.792Z,8.60
2022-11-22T18:42:56.687Z,8.60
2022-11-22T18:47:02.867Z,8.60
2022-11-22T18:51:18.883Z,8.60
2022-11-22T18:55:23.072Z,8.50
2022-11-22T18:59:26.060Z,8.50
2022-11-22T19:03:29.023Z,8.50
2022-11-22T19:07:32.653Z,8.50
2022-11-22T19:11:38.149Z,8.50
2022-11-22T19:15:42.517Z,8.50
2022-11-22T19:19:47.735Z,8.50
2022-11-22T19:23:51.191Z,8.50
2022-11-22T19:27:55.428Z,8.40
2022-11-22T19:31:58.349Z,8.40
2022-11-22T19:36:01.855Z,8.40
2022-11-22T19:40:05.093Z,8.40
2022-11-22T19:44:09.925Z,8.40
2022-11-22T19:48:14.310Z,8.30
2022-11-22T19:52:17.167Z,8.30
2022-11-22T19:56:20.681Z,8.30
2022-11-22T20:00:24.893Z,8.30
2022-11-22T20:04:29.010Z,8.30
2022-11-22T20:08:32.029Z,8.30
2022-11-22T20:12:35.035Z,8.30
2022-11-22T20:16:41.288Z,8.30
2022-11-22T20:20:44.170Z,8.30
2022-11-22T20:24:47.041Z,8.30
2022-11-22T20:28:54.959Z,8.30
2022-11-22T20:32:59.239Z,8.30
2022-11-22T20:37:03.417Z,8.40
2022-11-22T20:41:07.009Z,8.30
2022-11-22T20:45:10.216Z,8.30
2022-11-22T20:49:14.436Z,8.30
2022-11-22T20:53:17.310Z,8.30
2022-11-22T20:57:21.091Z,8.30
2022-11-22T21:01:25.436Z,8.30
2022-11-22T21:05:29.790Z,8.30
2022-11-22T21:09:32.667Z,8.30
2022-11-22T21:13:35.694Z,8.30
2022-11-22T21:17:55.701Z,8.30
2022-11-22T21:22:03.631Z,8.30
2022-11-22T21:26:07.169Z,8.30
2022-11-22T21:30:10.569Z,8.30
2022-11-22T21:34:13.511Z,8.40
2022-11-22T21:38:17.727Z,8.30
2022-11-22T21:42:20.649Z,8.40
2022-11-22T21:46:23.533Z,8.40
2022-11-22T21:50:26.700Z,8.40
2022-11-22T21:54:31.259Z,8.40
2022-11-22T21:58:34.475Z,8.40
2022-11-22T22:02:37.564Z,8.40
2022-11-22T22:06:46.129Z,8.40
2022-11-22T22:10:50.647Z,8.30
2022-11-22T22:14:53.568Z,8.40
2022-11-22T22:19:01.336Z,8.40
2022-11-22T22:23:06.418Z,8.30
2022-11-22T22:27:11.103Z,8.30
2022-11-22T22:31:16.587Z,8.30
2022-11-22T22:35:19.493Z,8.30
2022-11-22T22:39:22.667Z,8.30
2022-11-22T22:43:29.795Z,8.30
2022-11-22T22:47:32.709Z,8.30
2022-11-22T22:51:35.553Z,8.30
2022-11-22T22:55:38.556Z,8.30
2022-11-22T22:59:43.099Z,8.30
2022-11-22T23:03:48.067Z,8.30
2022-11-22T23:07:50.991Z,8.30
2022-11-22T23:12:11.950Z,8.30
2022-11-22T23:16:16.946Z,8.30
2022-11-22T23:20:19.882Z,8.30
2022-11-22T23:24:24.028Z,8.30
2022-11-22T23:28:26.864Z,8.30
2022-11-22T23:32:32.279Z,8.30
2022-11-22T23:36:40.396Z,8.30
2022-11-22T23:40:43.901Z,8.30
2022-11-22T23:44:46.718Z,8.40
2022-11-22T23:48:54.667Z,8.40
2022-11-22T23:52:57.741Z,8.40
2022-11-22T23:57:00.566Z,8.40
